Portada
METAR-TAF:

METAR-TAF

Aeropuertos :

Aeropuerto Internacional de Sunan

Pionyang, Corea del Norte

latitud: 39-02N, longitud: 125-47E, altitud: 36 m

METAR: falta

Hora: 10:42 (01:42 UTC)

Pronóstico

El informe se hizo hace 4 horas y 22 minutos, a las 21:20 UTC
Pronóstico válido del 07 a las 00 UTC al 07 a las 24 UTC
Viento 8 kt del norte-noroeste
Visibilidad: 6000 m
Evolucionando progresivamente
del 07 a las 03 UTC al 07 a las 05 UTC
Viento 12 kt del noroeste
Visibilidad 10 km o más
sin nubes por debajo de 1500 m y sin presencia de cumulonimbus.

TAF: ZKPY 062120Z 0700/0724 34004MPS 6000 NSC TX02/0706Z TNM07/0722Z BECMG 0703/0705 32006MPS CAVOK

Observaciones y pronósticos meteorológicos de más de 4000 aeropuertos (mensajes METAR y TAF).

Los puntos amarillos y rojos representan las estaciones disponibles.

Ponga el ratón en el punto deseado para ver el nombre de la estación.

Haga clic para ver las observaciones y los pronósticos meteorológicos.

Para cambiar el mapa : haga clic en los botones verdes con una cruz de color negro para hacer un zoom, en el botón verde con un guión para alejar o en las flechas verdes para mapas adyacentes.


METAR-TAF: